sensor_id;sensor_type;location;lat;lon;timestamp;temperature;humidity
62904;DHT22;49000;50.698;13.322;2023-04-01T00:01:04;7.40;99.90
62904;DHT22;49000;50.698;13.322;2023-04-01T00:03:30;7.40;99.90
62904;DHT22;49000;50.698;13.322;2023-04-01T00:05:57;7.40;99.90
62904;DHT22;49000;50.698;13.322;2023-04-01T00:08:24;7.30;99.90
62904;DHT22;49000;50.698;13.322;2023-04-01T00:10:49;7.40;99.90
62904;DHT22;49000;50.698;13.322;2023-04-01T00:13:15;7.30;99.90
62904;DHT22;49000;50.698;13.322;2023-04-01T00:15:42;7.30;99.90
62904;DHT22;49000;50.698;13.322;2023-04-01T00:18:08;7.20;99.90
62904;DHT22;49000;50.698;13.322;2023-04-01T00:20:33;7.50;99.90
62904;DHT22;49000;50.698;13.322;2023-04-01T00:22:59;7.40;99.90
62904;DHT22;49000;50.698;13.322;2023-04-01T00:25:25;7.50;99.90
62904;DHT22;49000;50.698;13.322;2023-04-01T00:27:50;7.00;99.90
62904;DHT22;49000;50.698;13.322;2023-04-01T00:30:16;6.90;99.90
62904;DHT22;49000;50.698;13.322;2023-04-01T00:32:42;7.00;99.90
62904;DHT22;49000;50.698;13.322;2023-04-01T00:35:08;7.10;99.90
62904;DHT22;49000;50.698;13.322;2023-04-01T00:37:35;7.50;99.90
62904;DHT22;49000;50.698;13.322;2023-04-01T00:40:00;7.20;99.90
62904;DHT22;49000;50.698;13.322;2023-04-01T00:42:26;7.10;99.90
62904;DHT22;49000;50.698;13.322;2023-04-01T00:44:53;7.60;99.90
62904;DHT22;49000;50.698;13.322;2023-04-01T00:47:19;6.90;99.90
62904;DHT22;49000;50.698;13.322;2023-04-01T00:49:47;7.50;99.90
62904;DHT22;49000;50.698;13.322;2023-04-01T00:52:16;7.40;99.90
62904;DHT22;49000;50.698;13.322;2023-04-01T00:54:45;7.30;99.90
62904;DHT22;49000;50.698;13.322;2023-04-01T00:57:25;7.60;99.90
62904;DHT22;49000;50.698;13.322;2023-04-01T00:59:54;7.00;99.90
62904;DHT22;49000;50.698;13.322;2023-04-01T01:02:20;7.10;99.90
62904;DHT22;49000;50.698;13.322;2023-04-01T01:04:46;7.30;99.90
62904;DHT22;49000;50.698;13.322;2023-04-01T01:07:34;7.30;99.90
62904;DHT22;49000;50.698;13.322;2023-04-01T01:12:37;7.30;99.90
62904;DHT22;49000;50.698;13.322;2023-04-01T01:17:56;7.50;99.90
62904;DHT22;49000;50.698;13.322;2023-04-01T01:20:48;7.20;99.90
62904;DHT22;49000;50.698;13.322;2023-04-01T01:26:44;7.20;99.90
62904;DHT22;49000;50.698;13.322;2023-04-01T01:34:54;7.00;99.90
62904;DHT22;49000;50.698;13.322;2023-04-01T01:37:25;7.30;99.90
62904;DHT22;49000;50.698;13.322;2023-04-01T01:39:58;6.90;99.90
62904;DHT22;49000;50.698;13.322;2023-04-01T01:42:26;7.30;99.90
62904;DHT22;49000;50.698;13.322;2023-04-01T01:44:53;7.10;99.90
62904;DHT22;49000;50.698;13.322;2023-04-01T01:47:21;7.30;99.90
62904;DHT22;49000;50.698;13.322;2023-04-01T01:49:48;6.90;99.90
62904;DHT22;49000;50.698;13.322;2023-04-01T01:52:14;7.20;99.90
62904;DHT22;49000;50.698;13.322;2023-04-01T01:54:54;7.20;99.90
62904;DHT22;49000;50.698;13.322;2023-04-01T01:57:24;7.30;99.90
62904;DHT22;49000;50.698;13.322;2023-04-01T01:59:52;7.30;99.90
62904;DHT22;49000;50.698;13.322;2023-04-01T02:02:19;7.20;99.90
62904;DHT22;49000;50.698;13.322;2023-04-01T02:04:47;7.10;99.90
62904;DHT22;49000;50.698;13.322;2023-04-01T02:07:19;6.90;99.90
62904;DHT22;49000;50.698;13.322;2023-04-01T02:09:47;7.00;99.90
62904;DHT22;49000;50.698;13.322;2023-04-01T02:12:14;7.20;99.90
62904;DHT22;49000;50.698;13.322;2023-04-01T02:17:18;7.20;99.90
62904;DHT22;49000;50.698;13.322;2023-04-01T02:20:08;6.90;99.90
62904;DHT22;49000;50.698;13.322;2023-04-01T02:22:37;7.10;99.90
62904;DHT22;49000;50.698;13.322;2023-04-01T02:25:10;6.80;99.90
62904;DHT22;49000;50.698;13.322;2023-04-01T02:27:38;6.80;99.90
62904;DHT22;49000;50.698;13.322;2023-04-01T02:30:04;7.00;99.90
62904;DHT22;49000;50.698;13.322;2023-04-01T02:32:31;6.90;99.90
62904;DHT22;49000;50.698;13.322;2023-04-01T02:34:58;7.10;99.90
62904;DHT22;49000;50.698;13.322;2023-04-01T02:37:25;7.10;99.90
62904;DHT22;49000;50.698;13.322;2023-04-01T02:39:51;6.80;99.90
62904;DHT22;49000;50.698;13.322;2023-04-01T02:42:16;7.10;99.90
62904;DHT22;49000;50.698;13.322;2023-04-01T02:44:41;6.90;99.90
62904;DHT22;49000;50.698;13.322;2023-04-01T02:47:07;7.20;99.90
62904;DHT22;49000;50.698;13.322;2023-04-01T02:49:32;7.30;99.90
62904;DHT22;49000;50.698;13.322;2023-04-01T02:51:58;6.80;99.90
62904;DHT22;49000;50.698;13.322;2023-04-01T02:54:23;6.90;99.90
62904;DHT22;49000;50.698;13.322;2023-04-01T02:56:49;7.20;99.90
62904;DHT22;49000;50.698;13.322;2023-04-01T02:59:14;6.80;99.90
62904;DHT22;49000;50.698;13.322;2023-04-01T03:01:40;7.10;99.90
62904;DHT22;49000;50.698;13.322;2023-04-01T03:04:05;7.30;99.90
62904;DHT22;49000;50.698;13.322;2023-04-01T03:06:31;7.20;99.90
62904;DHT22;49000;50.698;13.322;2023-04-01T03:08:56;6.70;99.90
62904;DHT22;49000;50.698;13.322;2023-04-01T03:11:22;7.10;99.90
62904;DHT22;49000;50.698;13.322;2023-04-01T03:13:48;7.10;99.90
62904;DHT22;49000;50.698;13.322;2023-04-01T03:16:14;6.90;99.90
62904;DHT22;49000;50.698;13.322;2023-04-01T03:18:39;6.80;99.90
62904;DHT22;49000;50.698;13.322;2023-04-01T03:21:18;7.10;99.90
62904;DHT22;49000;50.698;13.322;2023-04-01T03:23:44;7.00;99.90
62904;DHT22;49000;50.698;13.322;2023-04-01T03:26:10;7.00;99.90
62904;DHT22;49000;50.698;13.322;2023-04-01T03:28:36;6.80;99.90
62904;DHT22;49000;50.698;13.322;2023-04-01T03:31:02;6.90;99.90
62904;DHT22;49000;50.698;13.322;2023-04-01T03:33:28;6.80;99.90
62904;DHT22;49000;50.698;13.322;2023-04-01T03:35:53;7.10;99.90
62904;DHT22;49000;50.698;13.322;2023-04-01T03:38:19;6.80;99.90
62904;DHT22;49000;50.698;13.322;2023-04-01T03:40:45;7.20;99.90
62904;DHT22;49000;50.698;13.322;2023-04-01T03:43:10;7.00;99.90
62904;DHT22;49000;50.698;13.322;2023-04-01T03:45:45;6.80;99.90
62904;DHT22;49000;50.698;13.322;2023-04-01T03:48:11;7.20;99.90
62904;DHT22;49000;50.698;13.322;2023-04-01T03:50:37;7.20;99.90
62904;DHT22;49000;50.698;13.322;2023-04-01T03:53:02;7.10;99.90
62904;DHT22;49000;50.698;13.322;2023-04-01T03:55:27;7.20;99.90
62904;DHT22;49000;50.698;13.322;2023-04-01T03:57:53;7.20;99.90
62904;DHT22;49000;50.698;13.322;2023-04-01T04:00:18;6.80;99.90
62904;DHT22;49000;50.698;13.322;2023-04-01T04:02:44;7.10;99.90
62904;DHT22;49000;50.698;13.322;2023-04-01T04:05:10;7.20;99.90
62904;DHT22;49000;50.698;13.322;2023-04-01T04:07:36;6.80;99.90
62904;DHT22;49000;50.698;13.322;2023-04-01T04:10:01;6.70;99.90
62904;DHT22;49000;50.698;13.322;2023-04-01T04:12:27;7.10;99.90
62904;DHT22;49000;50.698;13.322;2023-04-01T04:14:52;6.80;99.90
62904;DHT22;49000;50.698;13.322;2023-04-01T04:17:18;7.00;99.90
62904;DHT22;49000;50.698;13.322;2023-04-01T04:19:43;6.80;99.90
62904;DHT22;49000;50.698;13.322;2023-04-01T04:22:09;7.10;99.90
62904;DHT22;49000;50.698;13.322;2023-04-01T04:24:35;6.70;99.90
62904;DHT22;49000;50.698;13.322;2023-04-01T04:27:01;6.70;99.90
62904;DHT22;49000;50.698;13.322;2023-04-01T04:29:26;6.90;99.90
62904;DHT22;49000;50.698;13.322;2023-04-01T04:31:52;6.90;99.90
62904;DHT22;49000;50.698;13.322;2023-04-01T04:34:18;7.00;99.90
62904;DHT22;49000;50.698;13.322;2023-04-01T04:36:44;6.50;99.90
62904;DHT22;49000;50.698;13.322;2023-04-01T04:39:09;6.90;99.90
62904;DHT22;49000;50.698;13.322;2023-04-01T04:41:37;6.90;99.90
62904;DHT22;49000;50.698;13.322;2023-04-01T04:44:02;6.50;99.90
62904;DHT22;49000;50.698;13.322;2023-04-01T04:46:28;6.50;99.90
62904;DHT22;49000;50.698;13.322;2023-04-01T04:48:53;6.80;99.90
62904;DHT22;49000;50.698;13.322;2023-04-01T04:51:20;7.00;99.90
62904;DHT22;49000;50.698;13.322;2023-04-01T04:53:46;6.40;99.90
62904;DHT22;49000;50.698;13.322;2023-04-01T04:56:12;6.60;99.90
62904;DHT22;49000;50.698;13.322;2023-04-01T04:58:38;6.90;99.90
62904;DHT22;49000;50.698;13.322;2023-04-01T05:01:09;6.90;99.90
62904;DHT22;49000;50.698;13.322;2023-04-01T05:03:36;7.00;99.90
62904;DHT22;49000;50.698;13.322;2023-04-01T05:06:02;6.90;99.90
62904;DHT22;49000;50.698;13.322;2023-04-01T05:08:27;7.10;99.90
62904;DHT22;49000;50.698;13.322;2023-04-01T05:10:54;7.10;99.90
62904;DHT22;49000;50.698;13.322;2023-04-01T05:13:19;6.60;99.90
62904;DHT22;49000;50.698;13.322;2023-04-01T05:15:45;7.10;99.90
62904;DHT22;49000;50.698;13.322;2023-04-01T05:18:10;7.00;99.90
62904;DHT22;49000;50.698;13.322;2023-04-01T05:20:36;7.00;99.90
62904;DHT22;49000;50.698;13.322;2023-04-01T05:23:01;6.70;99.90
62904;DHT22;49000;50.698;13.322;2023-04-01T05:25:27;7.00;99.90
62904;DHT22;49000;50.698;13.322;2023-04-01T05:27:52;7.00;99.90
62904;DHT22;49000;50.698;13.322;2023-04-01T05:30:18;6.80;99.90
62904;DHT22;49000;50.698;13.322;2023-04-01T05:32:44;6.70;99.90
62904;DHT22;49000;50.698;13.322;2023-04-01T05:35:10;6.60;99.90
62904;DHT22;49000;50.698;13.322;2023-04-01T05:37:35;6.80;99.90
62904;DHT22;49000;50.698;13.322;2023-04-01T05:40:02;7.20;99.90
62904;DHT22;49000;50.698;13.322;2023-04-01T05:42:28;7.20;99.90
62904;DHT22;49000;50.698;13.322;2023-04-01T05:44:53;6.80;99.90
62904;DHT22;49000;50.698;13.322;2023-04-01T05:47:19;6.80;99.90
62904;DHT22;49000;50.698;13.322;2023-04-01T05:49:44;6.70;99.90
62904;DHT22;49000;50.698;13.322;2023-04-01T05:52:10;6.70;99.90
62904;DHT22;49000;50.698;13.322;2023-04-01T05:54:35;7.10;99.90
62904;DHT22;49000;50.698;13.322;2023-04-01T05:57:01;6.90;99.90
62904;DHT22;49000;50.698;13.322;2023-04-01T05:59:26;6.90;99.90
62904;DHT22;49000;50.698;13.322;2023-04-01T06:01:51;6.80;99.90
62904;DHT22;49000;50.698;13.322;2023-04-01T06:04:18;7.40;99.90
62904;DHT22;49000;50.698;13.322;2023-04-01T06:06:43;7.20;99.90
62904;DHT22;49000;50.698;13.322;2023-04-01T06:09:28;7.00;99.90
62904;DHT22;49000;50.698;13.322;2023-04-01T06:17:38;7.30;99.90
62904;DHT22;49000;50.698;13.322;2023-04-01T06:20:24;7.00;99.90
62904;DHT22;49000;50.698;13.322;2023-04-01T06:25:50;7.40;99.90
62904;DHT22;49000;50.698;13.322;2023-04-01T06:34:37;7.50;99.90
62904;DHT22;49000;50.698;13.322;2023-04-01T06:42:30;7.50;99.90
62904;DHT22;49000;50.698;13.322;2023-04-01T06:45:50;7.10;99.90
62904;DHT22;49000;50.698;13.322;2023-04-01T06:50:43;7.70;99.90
62904;DHT22;49000;50.698;13.322;2023-04-01T06:53:35;7.60;99.90
62904;DHT22;49000;50.698;13.322;2023-04-01T06:56:07;7.70;99.90
62904;DHT22;49000;50.698;13.322;2023-04-01T06:59:05;7.90;99.90
62904;DHT22;49000;50.698;13.322;2023-04-01T07:01:34;7.90;99.90
62904;DHT22;49000;50.698;13.322;2023-04-01T07:04:14;7.60;99.90
62904;DHT22;49000;50.698;13.322;2023-04-01T07:06:48;8.00;99.90
62904;DHT22;49000;50.698;13.322;2023-04-01T07:09:19;7.80;99.90
62904;DHT22;49000;50.698;13.322;2023-04-01T07:11:45;7.80;99.90
62904;DHT22;49000;50.698;13.322;2023-04-01T07:14:24;7.70;99.90
62904;DHT22;49000;50.698;13.322;2023-04-01T07:17:04;8.30;99.90
62904;DHT22;49000;50.698;13.322;2023-04-01T07:19:42;8.40;99.90
62904;DHT22;49000;50.698;13.322;2023-04-01T07:22:34;8.20;99.90
62904;DHT22;49000;50.698;13.322;2023-04-01T07:25:53;8.20;99.90
62904;DHT22;49000;50.698;13.322;2023-04-01T07:28:14;8.20;99.90
62904;DHT22;49000;50.698;13.322;2023-04-01T07:36:28;8.40;99.90
62904;DHT22;49000;50.698;13.322;2023-04-01T07:39:11;8.50;99.90
62904;DHT22;49000;50.698;13.322;2023-04-01T07:41:43;8.50;99.90
62904;DHT22;49000;50.698;13.322;2023-04-01T07:47:18;8.40;99.90
62904;DHT22;49000;50.698;13.322;2023-04-01T07:50:05;8.40;99.90
62904;DHT22;49000;50.698;13.322;2023-04-01T07:53:20;8.40;99.90
62904;DHT22;49000;50.698;13.322;2023-04-01T07:55:41;8.60;99.90
62904;DHT22;49000;50.698;13.322;2023-04-01T07:58:35;8.40;99.90
62904;DHT22;49000;50.698;13.322;2023-04-01T08:01:12;8.50;99.90
62904;DHT22;49000;50.698;13.322;2023-04-01T08:03:54;8.40;99.90
62904;DHT22;49000;50.698;13.322;2023-04-01T08:06:51;8.50;99.90
62904;DHT22;49000;50.698;13.322;2023-04-01T08:12:13;8.50;99.90
62904;DHT22;49000;50.698;13.322;2023-04-01T08:15:16;8.50;99.90
62904;DHT22;49000;50.698;13.322;2023-04-01T08:20:59;8.60;99.90
62904;DHT22;49000;50.698;13.322;2023-04-01T08:23:44;8.60;99.90
62904;DHT22;49000;50.698;13.322;2023-04-01T08:26:26;8.70;99.90
62904;DHT22;49000;50.698;13.322;2023-04-01T08:29:10;8.70;99.90
62904;DHT22;49000;50.698;13.322;2023-04-01T08:31:43;8.80;99.90
62904;DHT22;49000;50.698;13.322;2023-04-01T08:34:21;8.60;99.90
62904;DHT22;49000;50.698;13.322;2023-04-01T08:36:58;8.90;99.90
62904;DHT22;49000;50.698;13.322;2023-04-01T08:59:41;9.20;99.90
62904;DHT22;49000;50.698;13.322;2023-04-01T09:05:34;9.20;99.90
62904;DHT22;49000;50.698;13.322;2023-04-01T09:11:04;9.40;99.90
62904;DHT22;49000;50.698;13.322;2023-04-01T09:14:05;9.50;99.90
62904;DHT22;49000;50.698;13.322;2023-04-01T09:22:30;10.30;99.90
62904;DHT22;49000;50.698;13.322;2023-04-01T09:25:23;10.40;99.90
62904;DHT22;49000;50.698;13.322;2023-04-01T09:37:13;10.20;99.90
62904;DHT22;49000;50.698;13.322;2023-04-01T09:45:23;10.20;99.90
62904;DHT22;49000;50.698;13.322;2023-04-01T09:48:00;10.30;99.90
62904;DHT22;49000;50.698;13.322;2023-04-01T09:51:00;10.50;99.90
62904;DHT22;49000;50.698;13.322;2023-04-01T09:56:30;11.00;99.90
62904;DHT22;49000;50.698;13.322;2023-04-01T10:02:11;11.30;98.10
62904;DHT22;49000;50.698;13.322;2023-04-01T10:08:14;11.50;88.00
62904;DHT22;49000;50.698;13.322;2023-04-01T10:11:12;11.40;90.10
62904;DHT22;49000;50.698;13.322;2023-04-01T10:14:18;11.40;89.80
62904;DHT22;49000;50.698;13.322;2023-04-01T10:22:51;11.10;92.70
62904;DHT22;49000;50.698;13.322;2023-04-01T10:36:59;12.20;73.50
62904;DHT22;49000;50.698;13.322;2023-04-01T10:48:23;12.30;62.60
62904;DHT22;49000;50.698;13.322;2023-04-01T10:56:59;12.00;59.50
62904;DHT22;49000;50.698;13.322;2023-04-01T11:02:15;12.00;58.70
62904;DHT22;49000;50.698;13.322;2023-04-01T11:10:21;12.40;47.80
62904;DHT22;49000;50.698;13.322;2023-04-01T11:15:57;12.30;56.60
62904;DHT22;49000;50.698;13.322;2023-04-01T11:21:42;12.40;45.00
62904;DHT22;49000;50.698;13.322;2023-04-01T11:30:05;12.00;54.40
62904;DHT22;49000;50.698;13.322;2023-04-01T11:32:43;12.10;55.20
62904;DHT22;49000;50.698;13.322;2023-04-01T11:38:03;12.70;48.70
62904;DHT22;49000;50.698;13.322;2023-04-01T11:40:53;12.80;49.40
62904;DHT22;49000;50.698;13.322;2023-04-01T11:43:54;12.90;49.00
62904;DHT22;49000;50.698;13.322;2023-04-01T11:46:37;12.90;48.90
62904;DHT22;49000;50.698;13.322;2023-04-01T11:57:35;12.30;50.50
62904;DHT22;49000;50.698;13.322;2023-04-01T12:05:52;13.10;41.50
62904;DHT22;49000;50.698;13.322;2023-04-01T12:08:42;13.40;37.50
62904;DHT22;49000;50.698;13.322;2023-04-01T12:11:21;13.60;39.10
62904;DHT22;49000;50.698;13.322;2023-04-01T12:24:47;12.90;34.20
62904;DHT22;49000;50.698;13.322;2023-04-01T12:30:15;12.20;49.00
62904;DHT22;49000;50.698;13.322;2023-04-01T12:35:52;12.30;61.60
62904;DHT22;49000;50.698;13.322;2023-04-01T12:38:42;12.30;41.70
62904;DHT22;49000;50.698;13.322;2023-04-01T12:41:46;12.50;54.40
62904;DHT22;49000;50.698;13.322;2023-04-01T12:44:29;13.30;55.70
62904;DHT22;49000;50.698;13.322;2023-04-01T12:53:00;14.50;37.90
62904;DHT22;49000;50.698;13.322;2023-04-01T12:55:38;14.70;29.70
62904;DHT22;49000;50.698;13.322;2023-04-01T13:03:52;13.80;27.60
62904;DHT22;49000;50.698;13.322;2023-04-01T13:06:48;13.70;30.90
62904;DHT22;49000;50.698;13.322;2023-04-01T13:09:33;13.70;29.70
62904;DHT22;49000;50.698;13.322;2023-04-01T13:12:22;13.30;32.70
62904;DHT22;49000;50.698;13.322;2023-04-01T13:18:15;13.10;40.60
62904;DHT22;49000;50.698;13.322;2023-04-01T13:21:02;12.80;35.30
62904;DHT22;49000;50.698;13.322;2023-04-01T13:26:34;12.30;43.80
62904;DHT22;49000;50.698;13.322;2023-04-01T13:29:19;11.90;59.80
62904;DHT22;49000;50.698;13.322;2023-04-01T13:34:26;12.50;60.60
62904;DHT22;49000;50.698;13.322;2023-04-01T13:37:08;12.60;58.40
62904;DHT22;49000;50.698;13.322;2023-04-01T13:40:00;12.50;52.40
62904;DHT22;49000;50.698;13.322;2023-04-01T13:42:42;12.30;45.40
62904;DHT22;49000;50.698;13.322;2023-04-01T13:45:22;12.10;50.80
62904;DHT22;49000;50.698;13.322;2023-04-01T13:48:22;12.00;61.50
62904;DHT22;49000;50.698;13.322;2023-04-01T13:53:44;11.40;68.00
62904;DHT22;49000;50.698;13.322;2023-04-01T13:56:34;11.40;72.70
62904;DHT22;49000;50.698;13.322;2023-04-01T13:59:08;11.40;72.50
62904;DHT22;49000;50.698;13.322;2023-04-01T14:04:34;11.50;63.10
62904;DHT22;49000;50.698;13.322;2023-04-01T14:07:18;11.30;70.60
62904;DHT22;49000;50.698;13.322;2023-04-01T14:12:50;11.40;75.50
62904;DHT22;49000;50.698;13.322;2023-04-01T14:18:47;11.60;72.20
62904;DHT22;49000;50.698;13.322;2023-04-01T14:24:15;11.70;70.10
62904;DHT22;49000;50.698;13.322;2023-04-01T14:32:15;12.10;86.70
62904;DHT22;49000;50.698;13.322;2023-04-01T14:35:31;12.40;90.00
62904;DHT22;49000;50.698;13.322;2023-04-01T14:40:48;12.90;62.70
62904;DHT22;49000;50.698;13.322;2023-04-01T14:46:32;12.40;57.20
62904;DHT22;49000;50.698;13.322;2023-04-01T14:49:27;12.20;65.50
62904;DHT22;49000;50.698;13.322;2023-04-01T14:51:55;12.40;71.60
62904;DHT22;49000;50.698;13.322;2023-04-01T14:54:38;12.30;63.00
62904;DHT22;49000;50.698;13.322;2023-04-01T14:57:14;12.00;70.40
62904;DHT22;49000;50.698;13.322;2023-04-01T14:59:48;12.20;85.00
62904;DHT22;49000;50.698;13.322;2023-04-01T15:02:51;12.00;80.80
62904;DHT22;49000;50.698;13.322;2023-04-01T15:06:00;11.80;72.50
62904;DHT22;49000;50.698;13.322;2023-04-01T15:08:50;11.80;79.30
62904;DHT22;49000;50.698;13.322;2023-04-01T15:11:37;12.00;78.40
62904;DHT22;49000;50.698;13.322;2023-04-01T15:14:26;12.10;79.00
62904;DHT22;49000;50.698;13.322;2023-04-01T15:17:22;12.30;77.00
62904;DHT22;49000;50.698;13.322;2023-04-01T15:22:47;12.30;73.40
62904;DHT22;49000;50.698;13.322;2023-04-01T15:33:11;12.70;66.00
62904;DHT22;49000;50.698;13.322;2023-04-01T15:43:53;12.50;67.90
62904;DHT22;49000;50.698;13.322;2023-04-01T15:57:06;12.40;62.40
62904;DHT22;49000;50.698;13.322;2023-04-01T16:08:34;13.00;57.00
62904;DHT22;49000;50.698;13.322;2023-04-01T16:11:21;12.80;45.50
62904;DHT22;49000;50.698;13.322;2023-04-01T16:14:16;12.70;46.90
62904;DHT22;49000;50.698;13.322;2023-04-01T16:17:12;12.70;48.50
62904;DHT22;49000;50.698;13.322;2023-04-01T16:20:14;13.00;47.00
62904;DHT22;49000;50.698;13.322;2023-04-01T16:22:59;12.80;35.20
62904;DHT22;49000;50.698;13.322;2023-04-01T16:25:40;12.30;43.80
62904;DHT22;49000;50.698;13.322;2023-04-01T16:30:57;11.80;50.10
62904;DHT22;49000;50.698;13.322;2023-04-01T16:33:48;11.60;50.10
62904;DHT22;49000;50.698;13.322;2023-04-01T16:36:35;11.60;56.30
62904;DHT22;49000;50.698;13.322;2023-04-01T16:42:17;11.50;59.50
62904;DHT22;49000;50.698;13.322;2023-04-01T16:44:53;11.30;62.40
62904;DHT22;49000;50.698;13.322;2023-04-01T16:47:23;11.10;69.20
62904;DHT22;49000;50.698;13.322;2023-04-01T16:53:02;10.90;81.50
62904;DHT22;49000;50.698;13.322;2023-04-01T16:55:41;10.90;79.80
62904;DHT22;49000;50.698;13.322;2023-04-01T16:58:09;11.00;81.60
62904;DHT22;49000;50.698;13.322;2023-04-01T17:03:16;10.90;78.10
62904;DHT22;49000;50.698;13.322;2023-04-01T17:06:25;10.80;77.20
62904;DHT22;49000;50.698;13.322;2023-04-01T17:17:59;10.80;80.80
62904;DHT22;49000;50.698;13.322;2023-04-01T17:20:32;10.70;81.50
62904;DHT22;49000;50.698;13.322;2023-04-01T17:23:27;10.70;81.60
62904;DHT22;49000;50.698;13.322;2023-04-01T17:26:37;10.60;81.70
62904;DHT22;49000;50.698;13.322;2023-04-01T17:35:09;10.40;92.60
62904;DHT22;49000;50.698;13.322;2023-04-01T17:43:06;10.40;92.80
62904;DHT22;49000;50.698;13.322;2023-04-01T17:45:52;10.40;93.40
62904;DHT22;49000;50.698;13.322;2023-04-01T17:48:50;10.40;93.30
62904;DHT22;49000;50.698;13.322;2023-04-01T17:51:43;10.40;93.50
62904;DHT22;49000;50.698;13.322;2023-04-01T17:59:48;10.30;95.10
62904;DHT22;49000;50.698;13.322;2023-04-01T18:14:40;10.20;99.20
62904;DHT22;49000;50.698;13.322;2023-04-01T18:20:15;10.10;99.90
62904;DHT22;49000;50.698;13.322;2023-04-01T18:22:44;10.10;99.90
62904;DHT22;49000;50.698;13.322;2023-04-01T18:30:40;9.90;99.90
62904;DHT22;49000;50.698;13.322;2023-04-01T18:33:31;10.00;99.90
62904;DHT22;49000;50.698;13.322;2023-04-01T18:36:37;9.90;99.90
62904;DHT22;49000;50.698;13.322;2023-04-01T18:39:22;9.90;99.90
62904;DHT22;49000;50.698;13.322;2023-04-01T18:42:03;9.80;99.90
62904;DHT22;49000;50.698;13.322;2023-04-01T18:44:38;9.80;99.90
62904;DHT22;49000;50.698;13.322;2023-04-01T18:47:29;9.70;99.90
62904;DHT22;49000;50.698;13.322;2023-04-01T18:55:51;9.60;99.90
62904;DHT22;49000;50.698;13.322;2023-04-01T18:59:33;9.60;99.90
62904;DHT22;49000;50.698;13.322;2023-04-01T19:01:47;9.60;99.90
62904;DHT22;49000;50.698;13.322;2023-04-01T19:06:54;9.60;99.90
62904;DHT22;49000;50.698;13.322;2023-04-01T19:09:29;9.60;99.90
62904;DHT22;49000;50.698;13.322;2023-04-01T19:12:28;9.60;99.90
62904;DHT22;49000;50.698;13.322;2023-04-01T19:18:21;9.50;99.90
62904;DHT22;49000;50.698;13.322;2023-04-01T19:20:57;9.50;99.90
62904;DHT22;49000;50.698;13.322;2023-04-01T19:26:29;9.50;99.90
62904;DHT22;49000;50.698;13.322;2023-04-01T19:35:10;9.30;99.90
62904;DHT22;49000;50.698;13.322;2023-04-01T19:40:53;9.30;99.90
62904;DHT22;49000;50.698;13.322;2023-04-01T19:43:48;9.30;99.90
62904;DHT22;49000;50.698;13.322;2023-04-01T19:46:37;9.30;99.90
62904;DHT22;49000;50.698;13.322;2023-04-01T19:52:20;9.20;99.90
62904;DHT22;49000;50.698;13.322;2023-04-01T20:00:30;9.10;99.90
62904;DHT22;49000;50.698;13.322;2023-04-01T20:03:15;9.10;99.90
62904;DHT22;49000;50.698;13.322;2023-04-01T20:06:05;9.10;99.90
62904;DHT22;49000;50.698;13.322;2023-04-01T20:08:42;9.10;99.90
62904;DHT22;49000;50.698;13.322;2023-04-01T20:17:13;9.00;99.90
62904;DHT22;49000;50.698;13.322;2023-04-01T20:25:22;9.00;99.90
62904;DHT22;49000;50.698;13.322;2023-04-01T20:28:05;9.00;99.90
62904;DHT22;49000;50.698;13.322;2023-04-01T20:33:42;8.90;99.90
62904;DHT22;49000;50.698;13.322;2023-04-01T20:36:37;8.90;99.90
62904;DHT22;49000;50.698;13.322;2023-04-01T20:39:27;8.90;99.90
62904;DHT22;49000;50.698;13.322;2023-04-01T20:45:00;8.90;99.90
62904;DHT22;49000;50.698;13.322;2023-04-01T20:50:41;8.90;99.90
62904;DHT22;49000;50.698;13.322;2023-04-01T21:01:34;8.70;99.90
62904;DHT22;49000;50.698;13.322;2023-04-01T21:10:11;8.80;99.90
62904;DHT22;49000;50.698;13.322;2023-04-01T21:18:46;8.80;99.90
62904;DHT22;49000;50.698;13.322;2023-04-01T21:29:47;8.80;99.90
62904;DHT22;49000;50.698;13.322;2023-04-01T21:32:31;8.80;99.90
62904;DHT22;49000;50.698;13.322;2023-04-01T21:35:18;8.80;99.90
62904;DHT22;49000;50.698;13.322;2023-04-01T21:38:03;8.80;99.90
62904;DHT22;49000;50.698;13.322;2023-04-01T21:40:44;8.80;99.90
62904;DHT22;49000;50.698;13.322;2023-04-01T21:43:44;8.70;99.90
62904;DHT22;49000;50.698;13.322;2023-04-01T21:46:41;8.80;99.90
62904;DHT22;49000;50.698;13.322;2023-04-01T21:57:36;8.80;99.90
62904;DHT22;49000;50.698;13.322;2023-04-01T22:09:02;8.80;99.90
62904;DHT22;49000;50.698;13.322;2023-04-01T22:14:41;8.80;99.90
62904;DHT22;49000;50.698;13.322;2023-04-01T22:17:26;8.80;99.90
62904;DHT22;49000;50.698;13.322;2023-04-01T22:23:10;8.80;99.90
62904;DHT22;49000;50.698;13.322;2023-04-01T22:25:49;8.70;99.90
62904;DHT22;49000;50.698;13.322;2023-04-01T22:28:21;8.70;99.90
62904;DHT22;49000;50.698;13.322;2023-04-01T22:30:51;8.40;99.90
62904;DHT22;49000;50.698;13.322;2023-04-01T22:33:38;8.40;99.90
62904;DHT22;49000;50.698;13.322;2023-04-01T22:36:28;8.60;99.90
62904;DHT22;49000;50.698;13.322;2023-04-01T22:41:56;8.50;99.90
62904;DHT22;49000;50.698;13.322;2023-04-01T22:49:54;8.60;99.90
62904;DHT22;49000;50.698;13.322;2023-04-01T22:55:13;8.70;99.90
62904;DHT22;49000;50.698;13.322;2023-04-01T22:57:56;8.60;99.90
62904;DHT22;49000;50.698;13.322;2023-04-01T23:05:46;8.30;99.90
62904;DHT22;49000;50.698;13.322;2023-04-01T23:08:46;8.60;99.90
62904;DHT22;49000;50.698;13.322;2023-04-01T23:11:47;8.60;99.90
62904;DHT22;49000;50.698;13.322;2023-04-01T23:17:17;8.60;99.90
62904;DHT22;49000;50.698;13.322;2023-04-01T23:22:51;8.80;99.90
62904;DHT22;49000;50.698;13.322;2023-04-01T23:28:40;8.60;99.90
62904;DHT22;49000;50.698;13.322;2023-04-01T23:33:56;8.20;99.90
62904;DHT22;49000;50.698;13.322;2023-04-01T23:36:22;8.50;99.90
62904;DHT22;49000;50.698;13.322;2023-04-01T23:38:48;8.50;99.90
62904;DHT22;49000;50.698;13.322;2023-04-01T23:41:27;8.70;99.90
62904;DHT22;49000;50.698;13.322;2023-04-01T23:44:09;8.50;99.90
62904;DHT22;49000;50.698;13.322;2023-04-01T23:46:36;8.50;99.90
62904;DHT22;49000;50.698;13.322;2023-04-01T23:49:06;8.10;99.90
62904;DHT22;49000;50.698;13.322;2023-04-01T23:51:46;8.40;99.90
62904;DHT22;49000;50.698;13.322;2023-04-01T23:54:19;8.40;99.90
62904;DHT22;49000;50.698;13.322;2023-04-01T23:56:52;8.20;99.90
62904;DHT22;49000;50.698;13.322;2023-04-01T23:59:23;8.40;99.90
